Flight Track Log - Related Links

Times and Time Zones

All times are in EDT time to prevent confusion due to time zone crossing. See the AAL1357 flight status page for this flight to view local times or setup timezone preferences in your user account.


Time Position Orientation Groundspeed Altitude Reporting Facility
EDT Latitude Longitude Course Direction KTS MPH feet Rate Location/Type
Mon 09:36:00 AM 40.3416 -73.2708 131° Southeast  Level FlightAware Approximate
Mon 09:37:00 AM 40.2324 -73.0923 128° Southeast  Level FlightAware Approximate
Mon 09:38:00 AM 40.1245 -72.9126 128° Southeast  Level FlightAware Approximate
Mon 09:39:00 AM 40.0197 -72.7302 125° Southeast  Level FlightAware Approximate
Mon 09:40:00 AM 39.9185 -72.5446 125° Southeast  Level FlightAware Approximate
Mon 09:41:00 AM 39.8036 -72.3764 126° Southeast  Level FlightAware Approximate
Mon 09:42:00 AM 39.7035 -72.1903 123° Southeast  Level FlightAware Approximate
Mon 09:43:00 AM 39.5948 -72.0129 129° Southeast  Level FlightAware Approximate
Mon 09:44:00 AM 39.4852 -71.8366 129° Southeast  Level FlightAware Approximate
Mon 09:45:00 AM 39.3631 -71.7164 199° South  Level FlightAware Approximate
Mon 09:46:00 AM 39.1980 -71.7896 199° South  Level FlightAware Approximate
Mon 09:47:00 AM 39.0328 -71.8624 199° South  Level FlightAware Approximate
Mon 09:48:00 AM 38.8675 -71.9350 199° South  Level FlightAware Approximate
Mon 09:49:00 AM 38.7022 -72.0071 199° South  Level FlightAware Approximate
Mon 09:50:00 AM 38.5369 -72.0790 199° South  Level FlightAware Approximate
Mon 09:51:00 AM 38.3715 -72.1505 199° South  Level FlightAware Approximate
Mon 09:52:00 AM 38.2061 -72.2217 199° South  Level FlightAware Approximate
Mon 09:53:00 AM 38.0406 -72.2925 199° South  Level FlightAware Approximate
Mon 09:54:00 AM 37.8751 -72.3631 199° South  Level FlightAware Approximate
Mon 09:55:00 AM 37.7010 -72.3692 181° South  Level FlightAware Approximate
Mon 09:56:00 AM 37.5264 -72.3718 181° South  Level FlightAware Approximate
Mon 09:57:00 AM 37.3518 -72.3744 181° South  Level FlightAware Approximate
Mon 09:58:00 AM 37.1772 -72.3770 181° South  Level FlightAware Approximate
Mon 09:59:00 AM 37.0026 -72.3796 181° South  Level FlightAware Approximate
Mon 10:00:00 AM 36.8280 -72.3822 181° South  Level FlightAware Approximate
Mon 10:01:00 AM 36.6535 -72.3845 181° South  Level FlightAware Approximate
Mon 10:02:00 AM 36.4789 -72.3872 181° South  Level FlightAware Approximate
Mon 10:03:00 AM 36.3043 -72.3898 181° South  Level FlightAware Approximate
Mon 10:04:00 AM 36.1297 -72.3924 181° South  Level FlightAware Approximate
Mon 10:05:00 AM 35.9551 -72.3950 181° South  Level FlightAware Approximate
Mon 10:06:00 AM 35.7805 -72.3976 181° South  Level FlightAware Approximate
Mon 10:07:00 AM 35.6059 -72.4000 180° South  Level FlightAware Approximate
Mon 10:08:00 AM 35.4313 -72.4000 180° South  Level FlightAware Approximate
Mon 10:09:00 AM 35.2567 -72.4000 180° South  Level FlightAware Approximate
Mon 10:10:00 AM 35.0821 -72.4000 180° South  Level FlightAware Approximate
Mon 10:11:00 AM 34.9080 -72.3868 175° South  Level FlightAware Approximate
Mon 10:12:00 AM 34.7340 -72.3685 175° South  Level FlightAware Approximate
Mon 10:13:00 AM 34.5599 -72.3526 176° South  Level FlightAware Approximate
Mon 10:14:00 AM 34.3857 -72.3371 176° South  Level FlightAware Approximate
Mon 10:15:00 AM 34.2116 -72.3216 176° South  Level FlightAware Approximate
Mon 10:16:00 AM 34.0375 -72.3062 176° South  Level FlightAware Approximate
Mon 10:17:00 AM 33.8658 -72.2714 167° South  Level FlightAware Approximate
Mon 10:18:00 AM 33.6958 -72.2234 167° South  Level FlightAware Approximate
Mon 10:19:00 AM 33.5258 -72.1755 167° South  Level FlightAware Approximate
Mon 10:20:00 AM 33.3558 -72.1279 167° South  Level FlightAware Approximate
Mon 10:21:00 AM 33.1858 -72.0804 167° South  Level FlightAware Approximate
Mon 10:22:00 AM 33.0157 -72.0331 167° South  Level FlightAware Approximate
Mon 10:23:00 AM 32.8457 -71.9860 167° South  Level FlightAware Approximate
Mon 10:24:00 AM 32.6756 -71.9391 167° South  Level FlightAware Approximate
Mon 10:25:00 AM 32.5054 -71.8925 167° South  Level FlightAware Approximate
Mon 10:26:00 AM 32.3351 -71.8470 167° South  Level FlightAware Approximate
Mon 10:27:00 AM 32.1648 -71.8016 167° South  Level FlightAware Approximate
Mon 10:28:00 AM 31.9944 -71.7566 168° South  Level FlightAware Approximate
Mon 10:29:00 AM 31.8239 -71.7124 168° South  Level FlightAware Approximate
Mon 10:30:00 AM 31.6533 -71.6684 168° South  Level FlightAware Approximate
Mon 10:31:00 AM 31.4827 -71.6246 168° South  Level FlightAware Approximate
Mon 10:32:00 AM 31.3122 -71.5809 168° South  Level FlightAware Approximate
Mon 10:33:00 AM 31.1416 -71.5374 168° South  Level FlightAware Approximate
Mon 10:34:00 AM 30.9710 -71.4940 168° South  Level FlightAware Approximate
Mon 10:35:00 AM 30.8004 -71.4508 168° South  Level FlightAware Approximate
Mon 10:36:00 AM 30.6297 -71.4077 168° South  Level FlightAware Approximate
Mon 10:37:00 AM 30.4591 -71.3648 168° South  Level FlightAware Approximate
Mon 10:38:00 AM 30.2884 -71.3220 168° South  Level FlightAware Approximate
Mon 10:39:00 AM 30.1178 -71.2793 168° South  Level FlightAware Approximate
Mon 10:40:00 AM 29.9471 -71.2367 168° South  Level FlightAware Approximate
Mon 10:41:00 AM 29.7764 -71.1943 168° South  Level FlightAware Approximate
Mon 10:42:00 AM 29.6057 -71.1520 168° South  Level FlightAware Approximate
Mon 10:43:00 AM 29.4350 -71.1099 168° South  Level FlightAware Approximate
Mon 10:44:00 AM 29.2643 -71.0679 168° South  Level FlightAware Approximate
Mon 10:45:00 AM 29.0935 -71.0261 168° South  Level FlightAware Approximate
Mon 10:46:00 AM 28.9228 -70.9844 168° South  Level FlightAware Approximate
Mon 10:47:00 AM 28.7524 -70.9406 167° South  Level FlightAware Approximate
Mon 10:48:00 AM 28.5824 -70.8955 167° South  Level FlightAware Approximate
Mon 10:49:00 AM 28.4121 -70.8517 167° South  Level FlightAware Approximate
Mon 10:50:00 AM 28.2418 -70.8080 167° South  Level FlightAware Approximate
Mon 10:51:00 AM 28.0714 -70.7645 167° South  Level FlightAware Approximate
Mon 10:52:00 AM 27.9011 -70.7212 167° South  Level FlightAware Approximate
Mon 10:53:00 AM 27.7293 -70.6858 170° South  Level FlightAware Approximate
Mon 10:54:00 AM 27.5579 -70.6485 168° South  Level FlightAware Approximate
Mon 10:55:00 AM 27.3871 -70.6074 168° South  Level FlightAware Approximate
Mon 10:56:00 AM 27.2164 -70.5664 168° South  Level FlightAware Approximate
Mon 10:57:00 AM 27.0456 -70.5256 168° South  Level FlightAware Approximate
Mon 10:58:00 AM 26.8748 -70.4849 168° South  Level FlightAware Approximate
Mon 10:59:00 AM 26.7040 -70.4443 168° South  Level FlightAware Approximate
Mon 11:00:00 AM 26.5332 -70.4039 168° South  Level FlightAware Approximate
Mon 11:01:00 AM 26.3623 -70.3635 168° South  Level FlightAware Approximate
Mon 11:02:00 AM 26.1915 -70.3233 168° South  Level FlightAware Approximate
Mon 11:03:00 AM 26.0206 -70.2832 168° South  Level FlightAware Approximate
Mon 11:04:00 AM 25.8497 -70.2436 168° South  Level FlightAware Approximate
Mon 11:05:00 AM 25.6787 -70.2044 168° South  Level FlightAware Approximate
Mon 11:06:00 AM 25.5077 -70.1654 168° South  Level FlightAware Approximate
Mon 11:07:00 AM 25.3367 -70.1264 168° South  Level FlightAware Approximate
Mon 11:08:00 AM 25.1656 -70.0875 168° South  Level FlightAware Approximate
Mon 11:09:00 AM 24.9947 -70.0482 163° South  Level FlightAware Approximate
Mon 11:10:00 AM 24.8222 -70.0279 178° South  Level FlightAware Approximate
Mon 11:11:00 AM 24.6477 -70.0204 178° South  Level FlightAware Approximate
Mon 11:12:00 AM 24.4733 -70.0130 178° South  Level FlightAware Approximate
Mon 11:13:00 AM 24.2988 -70.0056 178° South  Level FlightAware Approximate
Mon 11:14:00 AM 24.1244 -69.9966 176° South  Level FlightAware Approximate
Mon 11:15:00 AM 23.9503 -69.9824 176° South  Level FlightAware Approximate
Mon 11:16:00 AM 23.7761 -69.9683 176° South  Level FlightAware Approximate
Mon 11:17:00 AM 23.6020 -69.9542 176° South  Level FlightAware Approximate
Mon 11:18:00 AM 23.4278 -69.9425 177° South  Level FlightAware Approximate
Mon 11:19:00 AM 23.2534 -69.9318 177° South  Level FlightAware Approximate
Mon 11:20:00 AM 23.0791 -69.9211 177° South  Level FlightAware Approximate
Mon 11:21:00 AM 22.9048 -69.9105 177° South  Level FlightAware Approximate
Mon 11:22:00 AM 22.7312 -69.8979 139° Southeast  Level FlightAware Approximate
Mon 11:23:00 AM 22.5998 -69.7733 139° Southeast  Level FlightAware Approximate
Mon 11:24:00 AM 22.4684 -69.6488 139° Southeast  Level FlightAware Approximate
Mon 11:25:00 AM 22.3389 -69.5221 137° Southeast  Level FlightAware Approximate
Mon 11:26:00 AM 22.2108 -69.3939 137° Southeast  Level FlightAware Approximate
Mon 11:27:00 AM 22.0813 -69.2675 140° Southeast  Level FlightAware Approximate
Mon 11:28:00 AM 21.9484 -69.1454 140° Southeast  Level FlightAware Approximate
Mon 11:29:00 AM 21.8153 -69.0235 140° Southeast  Level FlightAware Approximate
Mon 11:30:00 AM 21.6824 -68.9017 139° Southeast  Level FlightAware Approximate
Mon 11:31:00 AM 21.5498 -68.7795 139° Southeast  Level FlightAware Approximate
Mon 11:32:00 AM 21.4172 -68.6575 139° Southeast  Level FlightAware Approximate
Mon 11:33:00 AM 21.2846 -68.5355 139° Southeast  Level FlightAware Approximate
Mon 11:34:00 AM 21.1532 -68.4121 139° Southeast  Level FlightAware Approximate
Mon 11:35:00 AM 21.0217 -68.2890 139° Southeast  Level FlightAware Approximate
Mon 11:36:00 AM 20.8901 -68.1661 139° Southeast  Level FlightAware Approximate
Mon 11:37:00 AM 20.7503 -68.0667 180° South  Level FlightAware Approximate
Mon 11:38:00 AM 20.5836 -68.0129 165° South  Level FlightAware Approximate
Mon 11:39:00 AM 20.4146 -67.9659 165° South  Level FlightAware Approximate
Mon 11:40:00 AM 20.2456 -67.9191 165° South  Level FlightAware Approximate
Mon 11:41:00 AM 20.0769 -67.8714 164° South  Level FlightAware Approximate
Mon 11:42:00 AM 19.9088 -67.8209 164° South  Level FlightAware Approximate
Mon 11:43:00 AM 19.7407 -67.7708 165° South  Level FlightAware Approximate
Mon 11:44:00 AM 19.5725 -67.7213 165° South  Level FlightAware Approximate
Mon 11:45:00 AM 19.4032 -67.6758 167° South  Level FlightAware Approximate
Mon 11:46:00 AM 19.2431 -67.6178 115° Southeast  Level FlightAware Approximate
Mon 11:47:00 AM 19.1681 -67.4509 116° Southeast  Level FlightAware Approximate
Mon 11:48:00 AM 19.0903 -67.2854 116° Southeast  Level FlightAware Approximate
Mon 11:49:00 AM 19.0106 -67.1211 118° Southeast  Level FlightAware Approximate
Mon 11:50:00 AM 18.9279 -66.9585 119° Southeast  Level FlightAware Approximate
Mon 11:51:00 AM 18.8421 -66.7977 119° Southeast  Level FlightAware Approximate
Mon 11:52:00 AM 18.7614 -66.6366 121° Southeast  Level FlightAware Approximate
Mon 11:53:00 AM 18.6802 -66.4770 118° Southeast  Level FlightAware Approximate
Mon 11:54:00 AM 18.5987 -66.3141 118° Southeast  Level FlightAware Approximate
Mon 11:55:00 AM 18.5173 -66.1512 118° Southeast  Level FlightAware Approximate
Mon 11:56:00 AM 18.4333 -66.0000 109° East  Level FlightAware Approximate
Mon 11:57:00 AM 18.4394 -66.0021 109° East  Level Estimated
Mon 11:58:00 AM 18.4333 -66.0000 109° East  Level FlightAware Approximate
Mon 11:59:00 AM 18.4394 -66.0021 109° East  Level Estimated
Mon 12:00:00 PM 18.4333 -66.0000 109° East  Level FlightAware Approximate
Mon 12:01:00 PM 18.4394 -66.0021 109° East  Level Estimated
Mon 12:02:00 PM 18.4333 -66.0000 109° East  Level FlightAware Approximate
Mon 12:03:00 PM 18.4394 -66.0021 109° East  Level Estimated
Mon 12:04:00 PM 18.4333 -66.0000 109° East  Level FlightAware Approximate
Mon 12:05:00 PM 18.4394 -66.0021 109° East  Level Estimated
Mon 12:06:00 PM 18.4333 -66.0000 109° East  Level FlightAware Approximate
Mon 12:07:00 PM 18.4394 -66.0021 109° East  Level Estimated
Mon 12:08:00 PM 18.4333 -66.0000 109° East  Level FlightAware Approximate
Mon 12:09:00 PM 18.4394 -66.0021 109° East  Level Estimated
Mon 12:10:00 PM 18.4333 -66.0000 109° East  Level FlightAware Approximate
Mon 12:11:00 PM 18.4394 -66.0021 109° East  Level Estimated
Mon 12:12:00 PM 18.4333 -66.0000 109° East  Level FlightAware Approximate

Login

Don't have an account? Register now (free) for customized features, flight alerts, and more!